sensor_id;sensor_type;location;lat;lon;timestamp;temperature;humidity
11385;DHT22;5747;56.748;13.882;2023-08-12T00:01:52;14.40;99.90
11385;DHT22;5747;56.748;13.882;2023-08-12T00:04:21;14.20;99.90
11385;DHT22;5747;56.748;13.882;2023-08-12T00:06:50;14.00;99.90
11385;DHT22;5747;56.748;13.882;2023-08-12T00:09:18;13.90;99.90
11385;DHT22;5747;56.748;13.882;2023-08-12T00:11:46;13.80;99.90
11385;DHT22;5747;56.748;13.882;2023-08-12T00:14:14;13.80;99.90
11385;DHT22;5747;56.748;13.882;2023-08-12T00:16:42;13.70;99.90
11385;DHT22;5747;56.748;13.882;2023-08-12T00:19:10;13.70;99.90
11385;DHT22;5747;56.748;13.882;2023-08-12T00:21:40;13.80;99.90
11385;DHT22;5747;56.748;13.882;2023-08-12T00:24:09;13.80;99.90
11385;DHT22;5747;56.748;13.882;2023-08-12T00:26:37;13.90;99.90
11385;DHT22;5747;56.748;13.882;2023-08-12T00:29:05;13.80;99.90
11385;DHT22;5747;56.748;13.882;2023-08-12T00:31:33;13.70;99.90
11385;DHT22;5747;56.748;13.882;2023-08-12T00:34:01;13.60;99.90
11385;DHT22;5747;56.748;13.882;2023-08-12T00:36:29;13.60;99.90
11385;DHT22;5747;56.748;13.882;2023-08-12T00:38:59;13.50;99.90
11385;DHT22;5747;56.748;13.882;2023-08-12T00:41:27;13.40;99.90
11385;DHT22;5747;56.748;13.882;2023-08-12T00:43:55;13.30;99.90
11385;DHT22;5747;56.748;13.882;2023-08-12T00:46:24;13.30;99.90
11385;DHT22;5747;56.748;13.882;2023-08-12T00:48:52;13.50;99.90
11385;DHT22;5747;56.748;13.882;2023-08-12T00:51:21;13.40;99.90
11385;DHT22;5747;56.748;13.882;2023-08-12T00:53:50;13.40;99.90
11385;DHT22;5747;56.748;13.882;2023-08-12T00:56:21;13.40;99.90
11385;DHT22;5747;56.748;13.882;2023-08-12T00:58:50;13.30;99.90
11385;DHT22;5747;56.748;13.882;2023-08-12T01:01:18;13.30;99.90
11385;DHT22;5747;56.748;13.882;2023-08-12T01:03:47;13.20;99.90
11385;DHT22;5747;56.748;13.882;2023-08-12T01:06:16;13.00;99.90
11385;DHT22;5747;56.748;13.882;2023-08-12T01:08:44;12.90;99.90
11385;DHT22;5747;56.748;13.882;2023-08-12T01:11:19;12.90;99.90
11385;DHT22;5747;56.748;13.882;2023-08-12T01:13:57;13.00;99.90
11385;DHT22;5747;56.748;13.882;2023-08-12T01:16:30;13.20;99.90
11385;DHT22;5747;56.748;13.882;2023-08-12T01:19:01;13.30;99.90
11385;DHT22;5747;56.748;13.882;2023-08-12T01:21:30;13.20;99.90
11385;DHT22;5747;56.748;13.882;2023-08-12T01:24:00;13.10;99.90
11385;DHT22;5747;56.748;13.882;2023-08-12T01:26:29;13.00;99.90
11385;DHT22;5747;56.748;13.882;2023-08-12T01:28:57;12.90;99.90
11385;DHT22;5747;56.748;13.882;2023-08-12T01:31:30;12.90;99.90
11385;DHT22;5747;56.748;13.882;2023-08-12T01:34:07;12.90;99.90
11385;DHT22;5747;56.748;13.882;2023-08-12T01:36:40;13.00;99.90
11385;DHT22;5747;56.748;13.882;2023-08-12T01:39:15;13.10;99.90
11385;DHT22;5747;56.748;13.882;2023-08-12T01:41:45;13.20;99.90
11385;DHT22;5747;56.748;13.882;2023-08-12T01:44:14;13.10;99.90
11385;DHT22;5747;56.748;13.882;2023-08-12T01:46:43;13.10;99.90
11385;DHT22;5747;56.748;13.882;2023-08-12T01:49:11;13.10;99.90
11385;DHT22;5747;56.748;13.882;2023-08-12T01:51:39;13.10;99.90
11385;DHT22;5747;56.748;13.882;2023-08-12T01:54:07;13.00;99.90
11385;DHT22;5747;56.748;13.882;2023-08-12T01:56:37;13.00;99.90
11385;DHT22;5747;56.748;13.882;2023-08-12T01:59:06;13.00;99.90
11385;DHT22;5747;56.748;13.882;2023-08-12T02:01:34;13.10;99.90
11385;DHT22;5747;56.748;13.882;2023-08-12T02:04:02;13.20;99.90
11385;DHT22;5747;56.748;13.882;2023-08-12T02:06:30;13.30;99.90
11385;DHT22;5747;56.748;13.882;2023-08-12T02:08:59;13.40;99.90
11385;DHT22;5747;56.748;13.882;2023-08-12T02:11:27;13.40;99.90
11385;DHT22;5747;56.748;13.882;2023-08-12T02:13:57;13.60;99.90
11385;DHT22;5747;56.748;13.882;2023-08-12T02:16:25;13.60;99.90
11385;DHT22;5747;56.748;13.882;2023-08-12T02:18:53;13.50;99.90
11385;DHT22;5747;56.748;13.882;2023-08-12T02:21:21;13.50;99.90
11385;DHT22;5747;56.748;13.882;2023-08-12T02:23:49;13.50;99.90
11385;DHT22;5747;56.748;13.882;2023-08-12T02:26:17;13.60;99.90
11385;DHT22;5747;56.748;13.882;2023-08-12T02:28:47;13.60;99.90
11385;DHT22;5747;56.748;13.882;2023-08-12T02:31:17;13.50;99.90
11385;DHT22;5747;56.748;13.882;2023-08-12T02:33:45;13.60;99.90
11385;DHT22;5747;56.748;13.882;2023-08-12T02:36:13;13.60;99.90
11385;DHT22;5747;56.748;13.882;2023-08-12T02:38:41;13.50;99.90
11385;DHT22;5747;56.748;13.882;2023-08-12T02:41:09;13.40;99.90
11385;DHT22;5747;56.748;13.882;2023-08-12T02:43:37;13.60;99.90
11385;DHT22;5747;56.748;13.882;2023-08-12T02:46:05;13.80;99.90
11385;DHT22;5747;56.748;13.882;2023-08-12T02:48:35;13.90;99.90
11385;DHT22;5747;56.748;13.882;2023-08-12T02:51:03;13.90;99.90
11385;DHT22;5747;56.748;13.882;2023-08-12T02:53:32;13.80;99.90
11385;DHT22;5747;56.748;13.882;2023-08-12T02:56:00;13.80;99.90
11385;DHT22;5747;56.748;13.882;2023-08-12T02:58:28;13.70;99.90
11385;DHT22;5747;56.748;13.882;2023-08-12T03:00:56;13.50;99.90
11385;DHT22;5747;56.748;13.882;2023-08-12T03:03:24;13.60;99.90
11385;DHT22;5747;56.748;13.882;2023-08-12T03:05:54;13.60;99.90
11385;DHT22;5747;56.748;13.882;2023-08-12T03:08:22;13.60;99.90
11385;DHT22;5747;56.748;13.882;2023-08-12T03:10:58;13.60;99.90
11385;DHT22;5747;56.748;13.882;2023-08-12T03:13:27;13.40;99.90
11385;DHT22;5747;56.748;13.882;2023-08-12T03:15:57;13.20;99.90
11385;DHT22;5747;56.748;13.882;2023-08-12T03:18:25;13.10;99.90
11385;DHT22;5747;56.748;13.882;2023-08-12T03:20:56;13.10;99.90
11385;DHT22;5747;56.748;13.882;2023-08-12T03:23:24;13.30;99.90
11385;DHT22;5747;56.748;13.882;2023-08-12T03:25:54;13.40;99.90
11385;DHT22;5747;56.748;13.882;2023-08-12T03:28:22;13.40;99.90
11385;DHT22;5747;56.748;13.882;2023-08-12T03:30:51;13.40;99.90
11385;DHT22;5747;56.748;13.882;2023-08-12T03:33:22;13.20;99.90
11385;DHT22;5747;56.748;13.882;2023-08-12T03:35:51;13.10;99.90
11385;DHT22;5747;56.748;13.882;2023-08-12T03:38:20;13.00;99.90
11385;DHT22;5747;56.748;13.882;2023-08-12T03:40:50;13.00;99.90
11385;DHT22;5747;56.748;13.882;2023-08-12T03:43:19;13.10;99.90
11385;DHT22;5747;56.748;13.882;2023-08-12T03:45:49;13.20;99.90
11385;DHT22;5747;56.748;13.882;2023-08-12T03:48:19;13.20;99.90
11385;DHT22;5747;56.748;13.882;2023-08-12T03:50:47;13.40;99.90
11385;DHT22;5747;56.748;13.882;2023-08-12T03:53:15;13.40;99.90
11385;DHT22;5747;56.748;13.882;2023-08-12T03:55:46;13.50;99.90
11385;DHT22;5747;56.748;13.882;2023-08-12T03:58:16;13.50;99.90
11385;DHT22;5747;56.748;13.882;2023-08-12T04:00:46;13.50;99.90
11385;DHT22;5747;56.748;13.882;2023-08-12T04:03:15;13.50;99.90
11385;DHT22;5747;56.748;13.882;2023-08-12T04:05:48;13.50;99.90
11385;DHT22;5747;56.748;13.882;2023-08-12T04:08:16;13.60;99.90
11385;DHT22;5747;56.748;13.882;2023-08-12T04:10:46;13.80;99.90
11385;DHT22;5747;56.748;13.882;2023-08-12T04:13:15;13.90;99.90
11385;DHT22;5747;56.748;13.882;2023-08-12T04:15:48;14.00;99.90
11385;DHT22;5747;56.748;13.882;2023-08-12T04:18:16;14.00;99.90
11385;DHT22;5747;56.748;13.882;2023-08-12T04:20:45;14.10;99.90
11385;DHT22;5747;56.748;13.882;2023-08-12T04:23:13;14.10;99.90
11385;DHT22;5747;56.748;13.882;2023-08-12T04:25:43;14.10;99.90
11385;DHT22;5747;56.748;13.882;2023-08-12T04:28:14;14.30;99.90
11385;DHT22;5747;56.748;13.882;2023-08-12T04:30:42;14.30;99.90
11385;DHT22;5747;56.748;13.882;2023-08-12T04:33:12;14.50;99.90
11385;DHT22;5747;56.748;13.882;2023-08-12T04:35:40;14.30;99.90
11385;DHT22;5747;56.748;13.882;2023-08-12T04:38:09;14.80;99.90
11385;DHT22;5747;56.748;13.882;2023-08-12T04:40:40;15.30;99.90
11385;DHT22;5747;56.748;13.882;2023-08-12T04:43:09;15.50;99.90
11385;DHT22;5747;56.748;13.882;2023-08-12T04:45:39;15.40;99.90
11385;DHT22;5747;56.748;13.882;2023-08-12T04:48:07;15.10;99.90
11385;DHT22;5747;56.748;13.882;2023-08-12T04:50:37;15.50;99.90
11385;DHT22;5747;56.748;13.882;2023-08-12T04:53:05;15.30;99.90
11385;DHT22;5747;56.748;13.882;2023-08-12T04:55:34;15.60;99.90
11385;DHT22;5747;56.748;13.882;2023-08-12T04:58:03;15.80;99.90
11385;DHT22;5747;56.748;13.882;2023-08-12T05:00:31;15.80;99.90
11385;DHT22;5747;56.748;13.882;2023-08-12T05:03:01;15.80;99.90
11385;DHT22;5747;56.748;13.882;2023-08-12T05:05:30;16.00;99.90
11385;DHT22;5747;56.748;13.882;2023-08-12T05:07:58;16.40;99.90
11385;DHT22;5747;56.748;13.882;2023-08-12T05:10:27;16.60;99.90
11385;DHT22;5747;56.748;13.882;2023-08-12T05:12:57;16.60;99.90
11385;DHT22;5747;56.748;13.882;2023-08-12T05:15:26;16.70;99.90
11385;DHT22;5747;56.748;13.882;2023-08-12T05:17:54;17.00;99.90
11385;DHT22;5747;56.748;13.882;2023-08-12T05:20:24;16.90;99.90
11385;DHT22;5747;56.748;13.882;2023-08-12T05:22:52;17.00;99.90
11385;DHT22;5747;56.748;13.882;2023-08-12T05:25:20;17.10;99.90
11385;DHT22;5747;56.748;13.882;2023-08-12T05:27:49;17.30;99.90
11385;DHT22;5747;56.748;13.882;2023-08-12T05:30:17;17.50;99.90
11385;DHT22;5747;56.748;13.882;2023-08-12T05:32:45;17.40;99.90
11385;DHT22;5747;56.748;13.882;2023-08-12T05:35:13;17.20;99.90
11385;DHT22;5747;56.748;13.882;2023-08-12T05:37:43;17.10;99.90
11385;DHT22;5747;56.748;13.882;2023-08-12T05:40:11;17.00;99.90
11385;DHT22;5747;56.748;13.882;2023-08-12T05:42:39;16.80;99.90
11385;DHT22;5747;56.748;13.882;2023-08-12T05:45:08;16.70;99.90
11385;DHT22;5747;56.748;13.882;2023-08-12T05:47:37;16.70;99.90
11385;DHT22;5747;56.748;13.882;2023-08-12T05:50:06;16.70;99.90
11385;DHT22;5747;56.748;13.882;2023-08-12T05:52:34;16.70;99.90
11385;DHT22;5747;56.748;13.882;2023-08-12T05:55:05;16.60;99.90
11385;DHT22;5747;56.748;13.882;2023-08-12T05:57:33;16.40;99.90
11385;DHT22;5747;56.748;13.882;2023-08-12T06:00:01;16.30;99.90
11385;DHT22;5747;56.748;13.882;2023-08-12T06:02:37;16.40;99.90
11385;DHT22;5747;56.748;13.882;2023-08-12T06:05:06;16.70;99.90
11385;DHT22;5747;56.748;13.882;2023-08-12T06:07:34;16.80;99.90
11385;DHT22;5747;56.748;13.882;2023-08-12T06:10:05;17.00;99.90
11385;DHT22;5747;56.748;13.882;2023-08-12T06:12:33;17.10;99.90
11385;DHT22;5747;56.748;13.882;2023-08-12T06:15:02;17.30;99.90
11385;DHT22;5747;56.748;13.882;2023-08-12T06:17:30;17.60;99.90
11385;DHT22;5747;56.748;13.882;2023-08-12T06:19:58;17.80;99.90
11385;DHT22;5747;56.748;13.882;2023-08-12T06:22:26;18.10;99.90
11385;DHT22;5747;56.748;13.882;2023-08-12T06:24:54;18.20;99.90
11385;DHT22;5747;56.748;13.882;2023-08-12T06:27:24;18.20;99.90
11385;DHT22;5747;56.748;13.882;2023-08-12T06:29:52;18.30;99.90
11385;DHT22;5747;56.748;13.882;2023-08-12T06:32:20;18.30;99.90
11385;DHT22;5747;56.748;13.882;2023-08-12T06:34:48;18.30;99.90
11385;DHT22;5747;56.748;13.882;2023-08-12T06:37:17;18.50;99.90
11385;DHT22;5747;56.748;13.882;2023-08-12T06:39:45;18.20;99.90
11385;DHT22;5747;56.748;13.882;2023-08-12T06:42:13;18.30;99.90
11385;DHT22;5747;56.748;13.882;2023-08-12T06:44:42;18.00;99.90
11385;DHT22;5747;56.748;13.882;2023-08-12T06:47:10;18.00;99.90
11385;DHT22;5747;56.748;13.882;2023-08-12T06:49:38;17.90;99.90
11385;DHT22;5747;56.748;13.882;2023-08-12T06:52:07;17.80;99.90
11385;DHT22;5747;56.748;13.882;2023-08-12T06:54:35;17.70;99.90
11385;DHT22;5747;56.748;13.882;2023-08-12T06:57:03;17.20;99.90
11385;DHT22;5747;56.748;13.882;2023-08-12T06:59:31;17.20;99.90
11385;DHT22;5747;56.748;13.882;2023-08-12T07:02:01;17.30;99.90
11385;DHT22;5747;56.748;13.882;2023-08-12T07:04:29;17.40;99.90
11385;DHT22;5747;56.748;13.882;2023-08-12T07:06:58;17.40;99.90
11385;DHT22;5747;56.748;13.882;2023-08-12T07:09:26;17.40;99.90
11385;DHT22;5747;56.748;13.882;2023-08-12T07:11:54;17.30;99.90
11385;DHT22;5747;56.748;13.882;2023-08-12T07:14:23;17.50;99.90
11385;DHT22;5747;56.748;13.882;2023-08-12T07:16:51;17.60;99.90
11385;DHT22;5747;56.748;13.882;2023-08-12T07:19:20;17.60;99.90
11385;DHT22;5747;56.748;13.882;2023-08-12T07:21:48;17.70;99.90
11385;DHT22;5747;56.748;13.882;2023-08-12T07:24:17;17.60;99.90
11385;DHT22;5747;56.748;13.882;2023-08-12T07:26:45;17.50;99.90
11385;DHT22;5747;56.748;13.882;2023-08-12T07:29:14;17.30;99.90
11385;DHT22;5747;56.748;13.882;2023-08-12T07:31:42;17.50;99.90
11385;DHT22;5747;56.748;13.882;2023-08-12T07:34:10;17.50;99.90
11385;DHT22;5747;56.748;13.882;2023-08-12T07:36:41;17.40;99.90
11385;DHT22;5747;56.748;13.882;2023-08-12T07:39:09;17.60;99.90
11385;DHT22;5747;56.748;13.882;2023-08-12T07:41:37;17.60;99.90
11385;DHT22;5747;56.748;13.882;2023-08-12T07:44:05;17.50;99.90
11385;DHT22;5747;56.748;13.882;2023-08-12T07:46:33;17.80;99.90
11385;DHT22;5747;56.748;13.882;2023-08-12T07:49:02;18.10;99.90
11385;DHT22;5747;56.748;13.882;2023-08-12T07:51:30;18.40;99.90
11385;DHT22;5747;56.748;13.882;2023-08-12T07:53:59;18.40;99.90
11385;DHT22;5747;56.748;13.882;2023-08-12T07:56:28;18.60;99.90
11385;DHT22;5747;56.748;13.882;2023-08-12T07:58:56;18.70;99.90
11385;DHT22;5747;56.748;13.882;2023-08-12T08:01:24;18.70;99.90
11385;DHT22;5747;56.748;13.882;2023-08-12T08:03:52;18.70;99.90
11385;DHT22;5747;56.748;13.882;2023-08-12T08:06:21;18.30;99.90
11385;DHT22;5747;56.748;13.882;2023-08-12T08:08:50;18.30;99.90
11385;DHT22;5747;56.748;13.882;2023-08-12T08:11:19;18.20;99.90
11385;DHT22;5747;56.748;13.882;2023-08-12T08:13:47;18.30;99.90
11385;DHT22;5747;56.748;13.882;2023-08-12T08:16:16;18.30;99.90
11385;DHT22;5747;56.748;13.882;2023-08-12T08:18:44;18.40;99.90
11385;DHT22;5747;56.748;13.882;2023-08-12T08:21:12;18.60;99.90
11385;DHT22;5747;56.748;13.882;2023-08-12T08:23:41;18.60;99.90
11385;DHT22;5747;56.748;13.882;2023-08-12T08:26:09;18.80;99.90
11385;DHT22;5747;56.748;13.882;2023-08-12T08:28:39;18.80;99.90
11385;DHT22;5747;56.748;13.882;2023-08-12T08:31:07;18.70;99.90
11385;DHT22;5747;56.748;13.882;2023-08-12T08:33:36;18.40;99.90
11385;DHT22;5747;56.748;13.882;2023-08-12T08:36:04;18.50;99.90
11385;DHT22;5747;56.748;13.882;2023-08-12T08:38:32;18.70;99.90
11385;DHT22;5747;56.748;13.882;2023-08-12T08:41:00;18.80;99.90
11385;DHT22;5747;56.748;13.882;2023-08-12T08:43:29;19.00;99.90
11385;DHT22;5747;56.748;13.882;2023-08-12T08:46:00;19.00;99.90
11385;DHT22;5747;56.748;13.882;2023-08-12T08:48:28;19.20;99.90
11385;DHT22;5747;56.748;13.882;2023-08-12T08:50:57;19.20;99.90
11385;DHT22;5747;56.748;13.882;2023-08-12T08:53:25;19.00;99.90
11385;DHT22;5747;56.748;13.882;2023-08-12T08:55:53;18.90;99.90
11385;DHT22;5747;56.748;13.882;2023-08-12T08:58:27;19.00;99.90
11385;DHT22;5747;56.748;13.882;2023-08-12T09:00:55;19.00;99.90
11385;DHT22;5747;56.748;13.882;2023-08-12T09:03:25;18.90;99.90
11385;DHT22;5747;56.748;13.882;2023-08-12T09:05:55;19.00;99.90
11385;DHT22;5747;56.748;13.882;2023-08-12T09:08:24;19.10;99.90
11385;DHT22;5747;56.748;13.882;2023-08-12T09:10:53;19.10;99.90
11385;DHT22;5747;56.748;13.882;2023-08-12T09:13:22;19.20;99.90
11385;DHT22;5747;56.748;13.882;2023-08-12T09:15:50;19.30;99.90
11385;DHT22;5747;56.748;13.882;2023-08-12T09:18:19;19.30;99.90
11385;DHT22;5747;56.748;13.882;2023-08-12T09:20:53;19.70;99.90
11385;DHT22;5747;56.748;13.882;2023-08-12T09:23:21;19.60;99.90
11385;DHT22;5747;56.748;13.882;2023-08-12T09:25:49;19.70;99.90
11385;DHT22;5747;56.748;13.882;2023-08-12T09:28:20;19.70;99.90
11385;DHT22;5747;56.748;13.882;2023-08-12T09:30:51;19.60;99.90
11385;DHT22;5747;56.748;13.882;2023-08-12T09:33:26;19.40;99.90
11385;DHT22;5747;56.748;13.882;2023-08-12T09:35:56;19.60;99.90
11385;DHT22;5747;56.748;13.882;2023-08-12T09:38:27;19.80;99.90
11385;DHT22;5747;56.748;13.882;2023-08-12T09:40:56;20.10;99.90
11385;DHT22;5747;56.748;13.882;2023-08-12T09:43:24;19.90;99.90
11385;DHT22;5747;56.748;13.882;2023-08-12T09:45:56;20.10;99.90
11385;DHT22;5747;56.748;13.882;2023-08-12T09:48:25;20.00;99.90
11385;DHT22;5747;56.748;13.882;2023-08-12T09:50:53;20.10;99.90
11385;DHT22;5747;56.748;13.882;2023-08-12T09:53:23;20.20;99.90
11385;DHT22;5747;56.748;13.882;2023-08-12T09:55:52;20.40;99.90
11385;DHT22;5747;56.748;13.882;2023-08-12T09:58:23;20.30;99.90
11385;DHT22;5747;56.748;13.882;2023-08-12T10:00:52;20.40;99.90
11385;DHT22;5747;56.748;13.882;2023-08-12T10:03:21;20.60;99.90
11385;DHT22;5747;56.748;13.882;2023-08-12T10:05:50;20.90;99.90
11385;DHT22;5747;56.748;13.882;2023-08-12T10:08:19;20.90;99.90
11385;DHT22;5747;56.748;13.882;2023-08-12T10:10:49;21.00;99.90
11385;DHT22;5747;56.748;13.882;2023-08-12T10:13:37;21.30;99.90
11385;DHT22;5747;56.748;13.882;2023-08-12T10:16:05;21.50;99.90
11385;DHT22;5747;56.748;13.882;2023-08-12T10:18:35;21.80;99.90
11385;DHT22;5747;56.748;13.882;2023-08-12T10:21:04;22.10;99.90
11385;DHT22;5747;56.748;13.882;2023-08-12T10:23:33;22.10;99.90
11385;DHT22;5747;56.748;13.882;2023-08-12T10:26:05;22.00;99.90
11385;DHT22;5747;56.748;13.882;2023-08-12T10:28:34;22.10;99.90
11385;DHT22;5747;56.748;13.882;2023-08-12T10:31:04;22.30;99.90
11385;DHT22;5747;56.748;13.882;2023-08-12T10:33:35;22.40;99.90
11385;DHT22;5747;56.748;13.882;2023-08-12T10:36:05;22.40;99.90
11385;DHT22;5747;56.748;13.882;2023-08-12T10:38:34;22.50;99.90
11385;DHT22;5747;56.748;13.882;2023-08-12T10:41:20;22.80;99.90
11385;DHT22;5747;56.748;13.882;2023-08-12T10:43:52;22.90;99.90
11385;DHT22;5747;56.748;13.882;2023-08-12T10:46:29;23.20;99.90
11385;DHT22;5747;56.748;13.882;2023-08-12T10:49:04;22.80;99.90
11385;DHT22;5747;56.748;13.882;2023-08-12T10:51:45;22.90;99.90
11385;DHT22;5747;56.748;13.882;2023-08-12T10:54:18;23.30;99.90
11385;DHT22;5747;56.748;13.882;2023-08-12T10:57:06;23.60;99.90
11385;DHT22;5747;56.748;13.882;2023-08-12T10:59:49;23.70;99.90
11385;DHT22;5747;56.748;13.882;2023-08-12T11:02:18;23.70;99.90
11385;DHT22;5747;56.748;13.882;2023-08-12T11:04:49;23.80;99.90
11385;DHT22;5747;56.748;13.882;2023-08-12T11:07:18;23.70;99.90
11385;DHT22;5747;56.748;13.882;2023-08-12T11:09:51;23.80;99.90
11385;DHT22;5747;56.748;13.882;2023-08-12T11:12:29;23.90;99.90
11385;DHT22;5747;56.748;13.882;2023-08-12T11:17:50;24.30;99.90
11385;DHT22;5747;56.748;13.882;2023-08-12T11:20:18;24.50;99.90
11385;DHT22;5747;56.748;13.882;2023-08-12T11:22:47;23.80;99.90
11385;DHT22;5747;56.748;13.882;2023-08-12T11:25:15;24.00;99.90
11385;DHT22;5747;56.748;13.882;2023-08-12T11:27:48;24.10;99.90
11385;DHT22;5747;56.748;13.882;2023-08-12T11:30:17;24.20;99.90
11385;DHT22;5747;56.748;13.882;2023-08-12T11:32:47;24.20;99.90
11385;DHT22;5747;56.748;13.882;2023-08-12T11:35:16;23.60;99.90
11385;DHT22;5747;56.748;13.882;2023-08-12T11:37:45;23.50;99.90
11385;DHT22;5747;56.748;13.882;2023-08-12T11:40:15;23.50;99.90
11385;DHT22;5747;56.748;13.882;2023-08-12T11:42:45;23.80;99.90
11385;DHT22;5747;56.748;13.882;2023-08-12T11:45:18;23.90;99.90
11385;DHT22;5747;56.748;13.882;2023-08-12T11:47:47;24.10;99.90
11385;DHT22;5747;56.748;13.882;2023-08-12T11:50:22;23.90;99.90
11385;DHT22;5747;56.748;13.882;2023-08-12T11:52:50;23.50;99.90
11385;DHT22;5747;56.748;13.882;2023-08-12T11:55:19;23.70;99.90
11385;DHT22;5747;56.748;13.882;2023-08-12T11:57:47;23.60;99.90
11385;DHT22;5747;56.748;13.882;2023-08-12T12:00:17;23.80;99.90
11385;DHT22;5747;56.748;13.882;2023-08-12T12:02:49;23.70;99.90
11385;DHT22;5747;56.748;13.882;2023-08-12T12:05:20;23.40;99.90
11385;DHT22;5747;56.748;13.882;2023-08-12T12:07:51;23.30;99.90
11385;DHT22;5747;56.748;13.882;2023-08-12T12:10:21;23.40;99.90
11385;DHT22;5747;56.748;13.882;2023-08-12T12:12:49;23.50;99.90
11385;DHT22;5747;56.748;13.882;2023-08-12T12:15:19;23.60;99.90
11385;DHT22;5747;56.748;13.882;2023-08-12T12:17:47;23.50;99.90
11385;DHT22;5747;56.748;13.882;2023-08-12T12:20:17;23.20;99.90
11385;DHT22;5747;56.748;13.882;2023-08-12T12:22:46;22.90;99.90
11385;DHT22;5747;56.748;13.882;2023-08-12T12:25:15;22.50;99.90
11385;DHT22;5747;56.748;13.882;2023-08-12T12:27:46;22.50;99.90
11385;DHT22;5747;56.748;13.882;2023-08-12T12:30:15;22.30;99.90
11385;DHT22;5747;56.748;13.882;2023-08-12T12:32:45;22.30;99.90
11385;DHT22;5747;56.748;13.882;2023-08-12T12:35:13;22.30;99.90
11385;DHT22;5747;56.748;13.882;2023-08-12T12:37:42;22.20;99.90
11385;DHT22;5747;56.748;13.882;2023-08-12T12:40:11;22.00;99.90
11385;DHT22;5747;56.748;13.882;2023-08-12T12:42:39;22.30;99.90
11385;DHT22;5747;56.748;13.882;2023-08-12T12:45:09;22.50;99.90
11385;DHT22;5747;56.748;13.882;2023-08-12T12:47:37;22.70;99.90
11385;DHT22;5747;56.748;13.882;2023-08-12T12:50:07;22.70;99.90
11385;DHT22;5747;56.748;13.882;2023-08-12T12:52:35;22.70;99.90
11385;DHT22;5747;56.748;13.882;2023-08-12T12:55:04;22.70;99.90
11385;DHT22;5747;56.748;13.882;2023-08-12T12:57:32;22.70;99.90
11385;DHT22;5747;56.748;13.882;2023-08-12T13:00:01;22.80;99.90
11385;DHT22;5747;56.748;13.882;2023-08-12T13:02:31;23.00;99.90
11385;DHT22;5747;56.748;13.882;2023-08-12T13:04:59;22.80;99.90
11385;DHT22;5747;56.748;13.882;2023-08-12T13:07:29;22.90;99.90
11385;DHT22;5747;56.748;13.882;2023-08-12T13:09:57;23.10;99.90
11385;DHT22;5747;56.748;13.882;2023-08-12T13:12:25;23.40;99.90
11385;DHT22;5747;56.748;13.882;2023-08-12T13:14:53;23.60;99.90
11385;DHT22;5747;56.748;13.882;2023-08-12T13:17:21;23.60;99.90
11385;DHT22;5747;56.748;13.882;2023-08-12T13:19:49;23.40;99.90
11385;DHT22;5747;56.748;13.882;2023-08-12T13:22:17;23.30;99.90
11385;DHT22;5747;56.748;13.882;2023-08-12T13:24:47;23.30;99.90
11385;DHT22;5747;56.748;13.882;2023-08-12T13:27:15;23.40;99.90
11385;DHT22;5747;56.748;13.882;2023-08-12T13:29:44;23.30;99.90
11385;DHT22;5747;56.748;13.882;2023-08-12T13:32:12;23.10;99.90
11385;DHT22;5747;56.748;13.882;2023-08-12T13:34:41;22.90;99.90
11385;DHT22;5747;56.748;13.882;2023-08-12T13:37:10;22.60;99.90
11385;DHT22;5747;56.748;13.882;2023-08-12T13:39:38;22.60;99.90
11385;DHT22;5747;56.748;13.882;2023-08-12T13:42:07;22.40;99.90
11385;DHT22;5747;56.748;13.882;2023-08-12T13:44:36;22.30;99.90
11385;DHT22;5747;56.748;13.882;2023-08-12T13:47:04;22.10;99.90
11385;DHT22;5747;56.748;13.882;2023-08-12T13:49:32;22.00;99.90
11385;DHT22;5747;56.748;13.882;2023-08-12T13:52:00;22.00;99.90
11385;DHT22;5747;56.748;13.882;2023-08-12T13:54:28;22.00;99.90
11385;DHT22;5747;56.748;13.882;2023-08-12T13:56:56;21.90;99.90
11385;DHT22;5747;56.748;13.882;2023-08-12T13:59:26;21.70;99.90
11385;DHT22;5747;56.748;13.882;2023-08-12T14:01:54;21.70;99.90
11385;DHT22;5747;56.748;13.882;2023-08-12T14:04:22;21.90;99.90
11385;DHT22;5747;56.748;13.882;2023-08-12T14:06:50;21.80;99.90
11385;DHT22;5747;56.748;13.882;2023-08-12T14:09:18;21.50;99.90
11385;DHT22;5747;56.748;13.882;2023-08-12T14:11:47;21.60;99.90
11385;DHT22;5747;56.748;13.882;2023-08-12T14:14:15;21.50;99.90
11385;DHT22;5747;56.748;13.882;2023-08-12T14:16:45;21.40;99.90
11385;DHT22;5747;56.748;13.882;2023-08-12T14:19:13;21.60;99.90
11385;DHT22;5747;56.748;13.882;2023-08-12T14:21:43;21.90;99.90
11385;DHT22;5747;56.748;13.882;2023-08-12T14:24:11;21.80;99.90
11385;DHT22;5747;56.748;13.882;2023-08-12T14:26:40;21.50;99.90
11385;DHT22;5747;56.748;13.882;2023-08-12T14:29:08;21.70;99.90
11385;DHT22;5747;56.748;13.882;2023-08-12T14:31:36;21.80;99.90
11385;DHT22;5747;56.748;13.882;2023-08-12T14:34:05;21.90;99.90
11385;DHT22;5747;56.748;13.882;2023-08-12T14:36:33;21.40;99.90
11385;DHT22;5747;56.748;13.882;2023-08-12T14:39:02;21.40;99.90
11385;DHT22;5747;56.748;13.882;2023-08-12T14:41:31;21.40;99.90
11385;DHT22;5747;56.748;13.882;2023-08-12T14:43:59;21.60;99.90
11385;DHT22;5747;56.748;13.882;2023-08-12T14:46:27;21.80;99.90
11385;DHT22;5747;56.748;13.882;2023-08-12T14:48:55;22.00;99.90
11385;DHT22;5747;56.748;13.882;2023-08-12T14:51:25;22.20;99.90
11385;DHT22;5747;56.748;13.882;2023-08-12T14:53:53;22.30;99.90
11385;DHT22;5747;56.748;13.882;2023-08-12T14:56:21;22.40;99.90
11385;DHT22;5747;56.748;13.882;2023-08-12T14:58:49;22.30;99.90
11385;DHT22;5747;56.748;13.882;2023-08-12T15:01:17;22.30;99.90
11385;DHT22;5747;56.748;13.882;2023-08-12T15:03:45;22.20;99.90
11385;DHT22;5747;56.748;13.882;2023-08-12T15:06:14;22.20;99.90
11385;DHT22;5747;56.748;13.882;2023-08-12T15:08:43;22.00;99.90
11385;DHT22;5747;56.748;13.882;2023-08-12T15:11:11;22.00;99.90
11385;DHT22;5747;56.748;13.882;2023-08-12T15:13:39;22.00;99.90
11385;DHT22;5747;56.748;13.882;2023-08-12T15:16:07;22.00;99.90
11385;DHT22;5747;56.748;13.882;2023-08-12T15:18:38;21.90;99.90
11385;DHT22;5747;56.748;13.882;2023-08-12T15:21:06;21.80;99.90
11385;DHT22;5747;56.748;13.882;2023-08-12T15:23:34;21.70;99.90
11385;DHT22;5747;56.748;13.882;2023-08-12T15:26:04;21.60;99.90
11385;DHT22;5747;56.748;13.882;2023-08-12T15:28:32;21.60;99.90
11385;DHT22;5747;56.748;13.882;2023-08-12T15:31:00;21.60;99.90
11385;DHT22;5747;56.748;13.882;2023-08-12T15:33:28;21.60;99.90
11385;DHT22;5747;56.748;13.882;2023-08-12T15:35:56;21.30;99.90
11385;DHT22;5747;56.748;13.882;2023-08-12T15:38:25;21.40;99.90
11385;DHT22;5747;56.748;13.882;2023-08-12T15:40:53;21.40;99.90
11385;DHT22;5747;56.748;13.882;2023-08-12T15:43:22;21.50;99.90
11385;DHT22;5747;56.748;13.882;2023-08-12T15:45:50;21.30;99.90